sensor_id;sensor_type;location;lat;lon;timestamp;P1;durP1;ratioP1;P2;durP2;ratioP2
71821;SDS011;64096;52.548;13.406;2023-07-28T06:03:12;3.03;;;2.40;;
71821;SDS011;64096;52.548;13.406;2023-07-28T06:05:41;3.60;;;2.60;;
71821;SDS011;64096;52.548;13.406;2023-07-28T06:08:09;4.22;;;2.45;;
71821;SDS011;64096;52.548;13.406;2023-07-28T06:10:36;3.38;;;2.40;;
71821;SDS011;64096;52.548;13.406;2023-07-28T06:13:03;3.28;;;2.45;;
71821;SDS011;64096;52.548;13.406;2023-07-28T06:15:29;3.30;;;2.30;;
71821;SDS011;64096;52.548;13.406;2023-07-28T06:17:55;3.53;;;2.42;;
71821;SDS011;64096;52.548;13.406;2023-07-28T06:20:21;3.58;;;2.45;;
71821;SDS011;64096;52.548;13.406;2023-07-28T06:22:47;4.35;;;2.40;;
71821;SDS011;64096;52.548;13.406;2023-07-28T06:25:13;4.53;;;2.30;;
71821;SDS011;64096;52.548;13.406;2023-07-28T06:27:39;4.15;;;2.50;;
71821;SDS011;64096;52.548;13.406;2023-07-28T06:30:06;3.15;;;2.30;;
71821;SDS011;64096;52.548;13.406;2023-07-28T06:32:32;3.28;;;2.40;;
71821;SDS011;64096;52.548;13.406;2023-07-28T06:34:58;4.13;;;2.20;;
71821;SDS011;64096;52.548;13.406;2023-07-28T06:37:24;3.20;;;2.50;;
71821;SDS011;64096;52.548;13.406;2023-07-28T06:39:50;3.08;;;2.35;;
71821;SDS011;64096;52.548;13.406;2023-07-28T06:42:16;3.08;;;2.30;;
71821;SDS011;64096;52.548;13.406;2023-07-28T06:44:48;3.92;;;2.40;;
71821;SDS011;64096;52.548;13.406;2023-07-28T06:47:15;2.90;;;2.03;;
71821;SDS011;64096;52.548;13.406;2023-07-28T06:49:41;3.08;;;2.28;;
71821;SDS011;64096;52.548;13.406;2023-07-28T06:52:07;3.00;;;2.30;;
71821;SDS011;64096;52.548;13.406;2023-07-28T06:54:33;3.22;;;2.10;;
71821;SDS011;64096;52.548;13.406;2023-07-28T06:56:59;4.35;;;2.22;;
71821;SDS011;64096;52.548;13.406;2023-07-28T06:59:25;3.25;;;2.30;;
71821;SDS011;64096;52.548;13.406;2023-07-28T07:01:51;2.80;;;2.15;;
71821;SDS011;64096;52.548;13.406;2023-07-28T07:04:18;2.70;;;1.80;;
71821;SDS011;64096;52.548;13.406;2023-07-28T07:06:44;4.45;;;2.30;;
71821;SDS011;64096;52.548;13.406;2023-07-28T07:09:11;3.00;;;2.22;;
71821;SDS011;64096;52.548;13.406;2023-07-28T07:11:40;4.57;;;2.20;;
71821;SDS011;64096;52.548;13.406;2023-07-28T07:14:06;3.70;;;2.00;;
71821;SDS011;64096;52.548;13.406;2023-07-28T07:16:33;4.95;;;2.08;;
71821;SDS011;64096;52.548;13.406;2023-07-28T07:18:59;2.92;;;1.77;;
71821;SDS011;64096;52.548;13.406;2023-07-28T07:21:27;2.47;;;1.60;;
71821;SDS011;64096;52.548;13.406;2023-07-28T07:23:53;2.47;;;1.60;;
71821;SDS011;64096;52.548;13.406;2023-07-28T07:26:19;2.63;;;1.75;;
71821;SDS011;64096;52.548;13.406;2023-07-28T07:28:45;4.45;;;1.80;;
71821;SDS011;64096;52.548;13.406;2023-07-28T07:31:12;2.35;;;1.55;;
71821;SDS011;64096;52.548;13.406;2023-07-28T07:33:38;3.92;;;1.90;;
71821;SDS011;64096;52.548;13.406;2023-07-28T07:36:05;3.20;;;1.83;;
71821;SDS011;64096;52.548;13.406;2023-07-28T07:38:31;2.90;;;1.70;;
71821;SDS011;64096;52.548;13.406;2023-07-28T07:40:57;3.47;;;1.80;;
71821;SDS011;64096;52.548;13.406;2023-07-28T07:43:23;3.00;;;1.88;;
71821;SDS011;64096;52.548;13.406;2023-07-28T07:45:49;2.38;;;1.60;;
71821;SDS011;64096;52.548;13.406;2023-07-28T07:48:19;6.80;;;1.92;;
71821;SDS011;64096;52.548;13.406;2023-07-28T07:50:45;2.33;;;1.60;;
71821;SDS011;64096;52.548;13.406;2023-07-28T07:53:11;2.75;;;1.60;;
71821;SDS011;64096;52.548;13.406;2023-07-28T07:55:37;1.83;;;1.38;;
71821;SDS011;64096;52.548;13.406;2023-07-28T07:58:03;1.88;;;1.23;;
71821;SDS011;64096;52.548;13.406;2023-07-28T08:00:29;2.13;;;1.50;;
71821;SDS011;64096;52.548;13.406;2023-07-28T08:02:55;2.38;;;1.50;;
71821;SDS011;64096;52.548;13.406;2023-07-28T08:05:21;2.17;;;1.30;;
71821;SDS011;64096;52.548;13.406;2023-07-28T08:07:47;2.53;;;1.40;;
71821;SDS011;64096;52.548;13.406;2023-07-28T08:10:13;3.20;;;1.40;;
71821;SDS011;64096;52.548;13.406;2023-07-28T08:12:39;1.83;;;1.15;;
71821;SDS011;64096;52.548;13.406;2023-07-28T08:15:06;1.35;;;1.00;;
71821;SDS011;64096;52.548;13.406;2023-07-28T08:17:33;2.08;;;1.20;;
71821;SDS011;64096;52.548;13.406;2023-07-28T08:19:59;1.70;;;1.10;;
71821;SDS011;64096;52.548;13.406;2023-07-28T08:22:25;1.30;;;0.82;;
71821;SDS011;64096;52.548;13.406;2023-07-28T08:24:51;1.00;;;0.90;;
71821;SDS011;64096;52.548;13.406;2023-07-28T08:27:17;1.83;;;1.00;;
71821;SDS011;64096;52.548;13.406;2023-07-28T08:29:43;1.38;;;0.90;;
71821;SDS011;64096;52.548;13.406;2023-07-28T08:32:09;1.60;;;1.05;;
71821;SDS011;64096;52.548;13.406;2023-07-28T08:34:36;1.45;;;0.90;;
71821;SDS011;64096;52.548;13.406;2023-07-28T08:37:02;2.42;;;0.90;;
71821;SDS011;64096;52.548;13.406;2023-07-28T08:39:28;1.20;;;0.85;;
71821;SDS011;64096;52.548;13.406;2023-07-28T08:41:58;1.27;;;0.90;;
71821;SDS011;64096;52.548;13.406;2023-07-28T08:44:24;0.95;;;0.82;;
71821;SDS011;64096;52.548;13.406;2023-07-28T08:46:51;1.13;;;0.90;;
71821;SDS011;64096;52.548;13.406;2023-07-28T08:49:17;1.80;;;1.05;;
71821;SDS011;64096;52.548;13.406;2023-07-28T08:51:48;1.35;;;0.95;;
71821;SDS011;64096;52.548;13.406;2023-07-28T08:54:14;1.27;;;0.80;;
71821;SDS011;64096;52.548;13.406;2023-07-28T08:56:42;1.15;;;0.82;;
71821;SDS011;64096;52.548;13.406;2023-07-28T08:59:09;0.88;;;0.70;;
71821;SDS011;64096;52.548;13.406;2023-07-28T09:01:38;1.05;;;0.73;;
71821;SDS011;64096;52.548;13.406;2023-07-28T09:04:11;0.82;;;0.80;;
71821;SDS011;64096;52.548;13.406;2023-07-28T09:06:37;0.80;;;0.70;;
71821;SDS011;64096;52.548;13.406;2023-07-28T09:09:07;1.10;;;0.70;;
71821;SDS011;64096;52.548;13.406;2023-07-28T09:11:33;1.00;;;0.70;;
71821;SDS011;64096;52.548;13.406;2023-07-28T09:14:00;0.88;;;0.70;;
71821;SDS011;64096;52.548;13.406;2023-07-28T09:16:27;1.00;;;0.85;;
71821;SDS011;64096;52.548;13.406;2023-07-28T09:19:04;1.90;;;0.98;;
71821;SDS011;64096;52.548;13.406;2023-07-28T09:21:30;4.70;;;1.10;;
71821;SDS011;64096;52.548;13.406;2023-07-28T09:23:58;1.80;;;0.95;;
71821;SDS011;64096;52.548;13.406;2023-07-28T09:26:36;1.13;;;0.90;;
71821;SDS011;64096;52.548;13.406;2023-07-28T09:29:10;1.60;;;1.02;;
71821;SDS011;64096;52.548;13.406;2023-07-28T09:31:36;1.38;;;0.93;;
71821;SDS011;64096;52.548;13.406;2023-07-28T09:34:03;2.40;;;1.30;;
71821;SDS011;64096;52.548;13.406;2023-07-28T09:36:33;1.38;;;0.95;;
71821;SDS011;64096;52.548;13.406;2023-07-28T09:38:59;2.75;;;1.10;;
71821;SDS011;64096;52.548;13.406;2023-07-28T09:41:27;1.13;;;0.98;;
71821;SDS011;64096;52.548;13.406;2023-07-28T09:43:55;1.48;;;0.90;;
71821;SDS011;64096;52.548;13.406;2023-07-28T09:46:22;1.20;;;0.80;;
71821;SDS011;64096;52.548;13.406;2023-07-28T09:48:48;1.38;;;0.93;;
71821;SDS011;64096;52.548;13.406;2023-07-28T09:51:18;0.93;;;0.80;;
71821;SDS011;64096;52.548;13.406;2023-07-28T09:53:58;0.93;;;0.70;;
71821;SDS011;64096;52.548;13.406;2023-07-28T09:56:27;1.08;;;0.75;;
71821;SDS011;64096;52.548;13.406;2023-07-28T09:58:54;1.55;;;0.80;;
71821;SDS011;64096;52.548;13.406;2023-07-28T10:01:21;1.17;;;0.80;;
71821;SDS011;64096;52.548;13.406;2023-07-28T10:03:49;1.15;;;0.90;;
71821;SDS011;64096;52.548;13.406;2023-07-28T10:06:16;0.95;;;0.80;;
71821;SDS011;64096;52.548;13.406;2023-07-28T10:08:42;1.38;;;0.90;;
71821;SDS011;64096;52.548;13.406;2023-07-28T10:11:09;1.00;;;0.63;;
71821;SDS011;64096;52.548;13.406;2023-07-28T10:13:40;0.70;;;0.70;;
71821;SDS011;64096;52.548;13.406;2023-07-28T10:16:07;1.10;;;0.80;;
71821;SDS011;64096;52.548;13.406;2023-07-28T10:18:34;0.95;;;0.85;;
71821;SDS011;64096;52.548;13.406;2023-07-28T10:21:08;1.65;;;0.90;;
71821;SDS011;64096;52.548;13.406;2023-07-28T10:23:38;2.40;;;0.85;;
71821;SDS011;64096;52.548;13.406;2023-07-28T10:26:04;1.30;;;0.90;;
71821;SDS011;64096;52.548;13.406;2023-07-28T10:28:36;0.80;;;0.63;;
71821;SDS011;64096;52.548;13.406;2023-07-28T10:31:09;1.13;;;0.80;;
71821;SDS011;64096;52.548;13.406;2023-07-28T10:33:45;1.20;;;0.80;;
71821;SDS011;64096;52.548;13.406;2023-07-28T10:38:37;1.30;;;1.00;;
71821;SDS011;64096;52.548;13.406;2023-07-28T10:41:14;1.23;;;0.90;;
71821;SDS011;64096;52.548;13.406;2023-07-28T10:43:40;1.45;;;1.08;;
71821;SDS011;64096;52.548;13.406;2023-07-28T10:46:07;1.83;;;1.30;;
71821;SDS011;64096;52.548;13.406;2023-07-28T10:48:34;1.50;;;1.05;;
71821;SDS011;64096;52.548;13.406;2023-07-28T10:51:00;1.02;;;0.70;;
71821;SDS011;64096;52.548;13.406;2023-07-28T10:53:26;1.98;;;1.08;;
71821;SDS011;64096;52.548;13.406;2023-07-28T10:55:53;1.10;;;0.80;;
71821;SDS011;64096;52.548;13.406;2023-07-28T10:58:19;3.67;;;1.45;;
71821;SDS011;64096;52.548;13.406;2023-07-28T11:00:45;1.50;;;1.05;;
71821;SDS011;64096;52.548;13.406;2023-07-28T11:03:12;1.38;;;0.80;;
71821;SDS011;64096;52.548;13.406;2023-07-28T11:05:39;0.80;;;0.70;;
71821;SDS011;64096;52.548;13.406;2023-07-28T11:08:05;2.10;;;1.20;;
71821;SDS011;64096;52.548;13.406;2023-07-28T11:10:32;1.95;;;0.98;;
71821;SDS011;64096;52.548;13.406;2023-07-28T11:13:02;0.90;;;0.70;;
71821;SDS011;64096;52.548;13.406;2023-07-28T11:15:28;1.40;;;0.90;;
71821;SDS011;64096;52.548;13.406;2023-07-28T11:17:54;1.05;;;0.80;;
71821;SDS011;64096;52.548;13.406;2023-07-28T11:20:25;1.23;;;0.70;;
71821;SDS011;64096;52.548;13.406;2023-07-28T11:22:55;1.33;;;0.80;;
71821;SDS011;64096;52.548;13.406;2023-07-28T11:25:21;2.15;;;0.90;;
71821;SDS011;64096;52.548;13.406;2023-07-28T11:27:48;4.13;;;1.60;;
71821;SDS011;64096;52.548;13.406;2023-07-28T11:30:14;2.13;;;1.00;;
71821;SDS011;64096;52.548;13.406;2023-07-28T11:32:42;1.67;;;1.00;;
71821;SDS011;64096;52.548;13.406;2023-07-28T11:35:09;1.10;;;0.82;;
71821;SDS011;64096;52.548;13.406;2023-07-28T11:37:36;1.15;;;0.75;;
71821;SDS011;64096;52.548;13.406;2023-07-28T11:40:03;1.60;;;0.88;;
71821;SDS011;64096;52.548;13.406;2023-07-28T11:42:32;1.10;;;0.90;;
71821;SDS011;64096;52.548;13.406;2023-07-28T11:44:58;1.23;;;0.90;;
71821;SDS011;64096;52.548;13.406;2023-07-28T11:47:24;2.25;;;1.02;;
71821;SDS011;64096;52.548;13.406;2023-07-28T11:49:50;1.00;;;0.70;;
71821;SDS011;64096;52.548;13.406;2023-07-28T11:52:16;1.05;;;0.70;;
71821;SDS011;64096;52.548;13.406;2023-07-28T11:54:43;1.20;;;0.90;;
71821;SDS011;64096;52.548;13.406;2023-07-28T11:57:10;1.40;;;0.82;;
71821;SDS011;64096;52.548;13.406;2023-07-28T11:59:36;1.70;;;1.02;;
71821;SDS011;64096;52.548;13.406;2023-07-28T12:02:03;0.80;;;0.70;;
71821;SDS011;64096;52.548;13.406;2023-07-28T12:04:35;1.20;;;0.80;;
71821;SDS011;64096;52.548;13.406;2023-07-28T12:09:31;1.77;;;1.10;;
71821;SDS011;64096;52.548;13.406;2023-07-28T12:11:58;1.13;;;0.90;;
71821;SDS011;64096;52.548;13.406;2023-07-28T12:14:31;1.20;;;0.85;;
71821;SDS011;64096;52.548;13.406;2023-07-28T12:16:57;1.42;;;0.90;;
71821;SDS011;64096;52.548;13.406;2023-07-28T12:19:26;1.10;;;0.73;;
71821;SDS011;64096;52.548;13.406;2023-07-28T12:21:52;1.15;;;0.98;;
71821;SDS011;64096;52.548;13.406;2023-07-28T12:24:18;1.85;;;1.00;;
71821;SDS011;64096;52.548;13.406;2023-07-28T12:26:48;2.30;;;1.20;;
71821;SDS011;64096;52.548;13.406;2023-07-28T12:29:16;1.20;;;0.88;;
71821;SDS011;64096;52.548;13.406;2023-07-28T12:31:42;1.52;;;0.90;;
71821;SDS011;64096;52.548;13.406;2023-07-28T12:34:08;1.30;;;1.00;;
71821;SDS011;64096;52.548;13.406;2023-07-28T12:36:34;1.33;;;0.82;;
71821;SDS011;64096;52.548;13.406;2023-07-28T12:39:00;1.10;;;0.80;;
71821;SDS011;64096;52.548;13.406;2023-07-28T12:41:26;1.50;;;1.00;;
71821;SDS011;64096;52.548;13.406;2023-07-28T12:43:52;1.83;;;1.15;;
71821;SDS011;64096;52.548;13.406;2023-07-28T12:46:18;3.05;;;1.70;;
71821;SDS011;64096;52.548;13.406;2023-07-28T12:48:44;1.10;;;0.88;;
71821;SDS011;64096;52.548;13.406;2023-07-28T12:51:10;1.25;;;0.80;;
71821;SDS011;64096;52.548;13.406;2023-07-28T12:53:36;1.35;;;0.70;;
71821;SDS011;64096;52.548;13.406;2023-07-28T12:56:02;1.23;;;0.88;;
71821;SDS011;64096;52.548;13.406;2023-07-28T12:58:28;1.85;;;0.70;;
71821;SDS011;64096;52.548;13.406;2023-07-28T13:00:56;0.88;;;0.70;;
71821;SDS011;64096;52.548;13.406;2023-07-28T13:03:24;1.30;;;0.80;;
71821;SDS011;64096;52.548;13.406;2023-07-28T13:05:50;1.25;;;0.63;;
71821;SDS011;64096;52.548;13.406;2023-07-28T13:08:16;1.20;;;0.90;;
71821;SDS011;64096;52.548;13.406;2023-07-28T13:10:42;1.70;;;0.98;;
71821;SDS011;64096;52.548;13.406;2023-07-28T13:13:08;0.90;;;0.77;;
71821;SDS011;64096;52.548;13.406;2023-07-28T13:15:34;1.15;;;0.80;;
71821;SDS011;64096;52.548;13.406;2023-07-28T13:18:00;2.28;;;0.90;;
71821;SDS011;64096;52.548;13.406;2023-07-28T13:20:26;1.65;;;0.90;;
71821;SDS011;64096;52.548;13.406;2023-07-28T13:22:52;1.20;;;0.90;;
71821;SDS011;64096;52.548;13.406;2023-07-28T13:25:18;1.17;;;0.90;;
71821;SDS011;64096;52.548;13.406;2023-07-28T13:27:44;1.23;;;0.90;;
71821;SDS011;64096;52.548;13.406;2023-07-28T13:30:11;1.42;;;1.00;;
71821;SDS011;64096;52.548;13.406;2023-07-28T13:32:37;1.38;;;0.90;;
71821;SDS011;64096;52.548;13.406;2023-07-28T13:35:03;1.67;;;1.00;;
71821;SDS011;64096;52.548;13.406;2023-07-28T13:37:29;1.10;;;0.77;;
71821;SDS011;64096;52.548;13.406;2023-07-28T13:39:55;1.35;;;1.00;;
71821;SDS011;64096;52.548;13.406;2023-07-28T13:42:21;1.65;;;0.98;;
71821;SDS011;64096;52.548;13.406;2023-07-28T13:44:47;1.08;;;0.85;;
71821;SDS011;64096;52.548;13.406;2023-07-28T13:47:13;1.27;;;0.93;;
71821;SDS011;64096;52.548;13.406;2023-07-28T13:49:39;1.30;;;0.90;;
71821;SDS011;64096;52.548;13.406;2023-07-28T13:52:06;1.10;;;0.80;;
71821;SDS011;64096;52.548;13.406;2023-07-28T13:54:32;0.75;;;0.73;;
71821;SDS011;64096;52.548;13.406;2023-07-28T13:56:58;1.08;;;0.82;;
71821;SDS011;64096;52.548;13.406;2023-07-28T13:59:24;1.30;;;1.00;;
